Search for airport 
image banner adimage banner adimage banner ad
image banner ad

PA42 - Berwick Hospital Corporation Personal Use

Located in Berwick, United States

ICAO - PA42, IATA -

Data provided by Airmate  

General information

Coordinates: N41°4'14" W76°13'50"
Elevation is 581 feet MSL.
Magnetic variation is -11° East
View others Airports in Pennsylvania

Operational data

Special qualification required
Current time UTC:
Current local time:
Weather at : KHZL - Hazleton Rgnl ( 22 km )
METAR: KHZL 091415Z AUTO 00000KT 10SM CLR 09/02 A3007 RMK AO2
View NOTAMs / SUP AIP / TFR affecting this airport [VIEW]
Communications frequencies: [VIEW]

Runways:

Airport contact information

Address: Berwick United States

Satellite view of PA42